Strona główna
METAR-TAF:

METAR-TAF

Lotnisko :

Port lotniczy Marka

Amman, Jordania

Szerokość geograficzna: 31-59N, Długość geograficzna: 035-59E, wysokość: 767 m

Aktualna obserwacja pogody

Raport powstał 39 minut temu, godzina 06:00 UTC
Wiatr 3 kt od wschodnio-północny wschód
Temperatura 27°C
Wilgotność 34%
Ciśnienie 1012 hPa
Widzialność: 4000 m
dym

METAR: OJAM 230600Z 06003KT 4000 FU NSC 27/10 Q1012 NOSIG

czas: 09:39 (06:39 UTC)

Prognoza

Raport powstał 1 godzina i 39 minut temu, godzina 05:00 UTC
Prognoza ważna od 23 godzina 06 UTC do 24 godzina 12 UTC
Wiatr 10 kt od zachód
Widzialność: 6000 m
Przejściowo
od 23 godzina 10 UTC do 23 godzina 18 UTC
Wiatr 12 kt od północno-północny wschód
Widzialność: 5000 m
zmętnienie

TAF: OJAM 230500Z 2306/2412 28010KT 6000 NSC TEMPO 2310/2318 03012KT 5000 HZ

Obserwacja i prognoza pogody dla ponad 4000 lotnisk (raport METAR i TAF).

Dostępne stacje oznaczono żółtymi i czerwonymi punktami na mapie.

Najedź kursorem aby zobaczyć nazwę stacji.

Kliknij aby zobaczyć obserwacje i prognozy pogody.

Aby zmienić mapę: kliknij na zielony przycisk z czarnym krzyżykiem, aby powiększyć; na zielony przycisk z myślnikiem, aby pomniejszyć; na zielone strzałki, aby przejść do map sąsiednich.


METAR-TAF: